createdAt,value
2023-05-07T00:03:36.724Z,100.00
2023-05-07T00:07:26.250Z,100.00
2023-05-07T00:11:14.527Z,100.00
2023-05-07T00:15:02.102Z,100.00
2023-05-07T00:18:51.580Z,100.00
2023-05-07T00:22:45.002Z,100.00
2023-05-07T00:26:32.418Z,100.00
2023-05-07T00:34:46.894Z,100.00
2023-05-07T00:39:14.306Z,100.00
2023-05-07T00:43:42.594Z,100.00
2023-05-07T00:48:10.132Z,100.00
2023-05-07T00:52:37.644Z,100.00
2023-05-07T00:57:05.070Z,100.00
2023-05-07T01:01:32.681Z,100.00
2023-05-07T01:06:06.305Z,100.00
2023-05-07T01:10:35.550Z,100.00
2023-05-07T01:15:03.956Z,100.00
2023-05-07T01:19:34.708Z,100.00
2023-05-07T01:24:02.322Z,100.00
2023-05-07T01:28:29.954Z,100.00
2023-05-07T01:33:00.240Z,100.00
2023-05-07T01:37:28.210Z,100.00
2023-05-07T01:41:55.721Z,100.00
2023-05-07T01:46:23.332Z,100.00
2023-05-07T01:50:51.905Z,100.00
2023-05-07T01:55:19.464Z,100.00
2023-05-07T01:59:48.574Z,100.00
2023-05-07T02:04:16.288Z,100.00
2023-05-07T02:08:43.708Z,100.00
2023-05-07T02:13:11.385Z,100.00
2023-05-07T02:17:38.966Z,100.00
2023-05-07T02:22:06.679Z,100.00
2023-05-07T02:26:34.229Z,100.00
2023-05-07T02:31:01.728Z,100.00
2023-05-07T02:35:29.803Z,100.00
2023-05-07T02:39:57.263Z,100.00
2023-05-07T02:44:24.956Z,100.00
2023-05-07T02:48:52.259Z,100.00
2023-05-07T02:53:19.454Z,100.00
2023-05-07T02:57:48.346Z,100.00
2023-05-07T03:01:56.289Z,100.00
2023-05-07T03:06:05.967Z,100.00
2023-05-07T03:09:53.521Z,100.00
2023-05-07T03:13:41.289Z,100.00
2023-05-07T03:17:20.998Z,100.00
2023-05-07T03:20:51.686Z,100.00
2023-05-07T03:24:31.432Z,100.00
2023-05-07T03:28:19.476Z,100.00
2023-05-07T03:32:06.737Z,100.00
2023-05-07T03:35:56.111Z,100.00
2023-05-07T03:39:26.084Z,100.00
2023-05-07T03:43:17.197Z,100.00
2023-05-07T03:47:08.652Z,100.00
2023-05-07T03:50:56.527Z,100.00
2023-05-07T03:54:28.168Z,100.00
2023-05-07T03:58:17.643Z,100.00
2023-05-07T04:02:05.838Z,100.00
2023-05-07T04:05:53.654Z,100.00
2023-05-07T04:09:41.606Z,100.00
2023-05-07T04:13:28.883Z,100.00
2023-05-07T04:17:16.739Z,100.00
2023-05-07T04:21:03.757Z,100.00
2023-05-07T04:24:52.300Z,100.00
2023-05-07T04:28:41.353Z,100.00
2023-05-07T04:32:30.102Z,100.00
2023-05-07T04:35:40.190Z,100.00
2023-05-07T04:39:29.041Z,100.00
2023-05-07T04:43:17.211Z,100.00
2023-05-07T04:46:56.475Z,100.00
2023-05-07T04:50:45.766Z,100.00
2023-05-07T04:54:32.977Z,100.00
2023-05-07T04:58:21.124Z,100.00
2023-05-07T05:02:12.267Z,100.00
2023-05-07T05:05:59.941Z,100.00
2023-05-07T05:09:48.302Z,100.00
2023-05-07T05:13:37.973Z,100.00
2023-05-07T05:17:27.970Z,100.00
2023-05-07T05:21:15.486Z,100.00
2023-05-07T05:25:03.790Z,100.00
2023-05-07T05:28:43.170Z,100.00
2023-05-07T05:32:24.971Z,100.00
2023-05-07T05:36:12.989Z,100.00
2023-05-07T05:39:50.833Z,100.00
2023-05-07T05:43:58.409Z,100.00
2023-05-07T05:47:46.316Z,100.00
2023-05-07T05:51:33.673Z,100.00
2023-05-07T05:55:22.099Z,100.00
2023-05-07T05:59:09.615Z,100.00
2023-05-07T06:02:57.600Z,100.00
2023-05-07T06:06:38.662Z,100.00
2023-05-07T06:10:26.454Z,100.00
2023-05-07T06:14:14.200Z,100.00
2023-05-07T06:18:03.148Z,100.00
2023-05-07T06:22:06.975Z,100.00
2023-05-07T06:26:20.445Z,100.00
2023-05-07T06:30:08.795Z,100.00
2023-05-07T06:33:55.156Z,100.00
2023-05-07T06:37:50.880Z,100.00
2023-05-07T06:41:38.926Z,100.00
2023-05-07T06:45:33.034Z,100.00
2023-05-07T06:49:20.980Z,100.00
2023-05-07T06:53:01.275Z,100.00
2023-05-07T06:57:10.346Z,100.00
2023-05-07T07:00:36.419Z,100.00
2023-05-07T07:04:24.467Z,100.00
2023-05-07T07:07:59.616Z,100.00
2023-05-07T07:11:49.137Z,100.00
2023-05-07T07:15:37.313Z,100.00
2023-05-07T07:19:47.041Z,100.00
2023-05-07T07:23:57.342Z,100.00
2023-05-07T07:27:47.002Z,100.00
2023-05-07T07:31:35.299Z,100.00
2023-05-07T07:35:45.537Z,100.00
2023-05-07T07:39:34.633Z,100.00
2023-05-07T07:43:23.000Z,100.00
2023-05-07T07:47:48.110Z,100.00
2023-05-07T07:51:36.901Z,100.00
2023-05-07T07:55:29.253Z,100.00
2023-05-07T07:59:33.745Z,100.00
2023-05-07T08:03:41.906Z,100.00
2023-05-07T08:08:17.100Z,100.00
2023-05-07T08:11:44.030Z,100.00
2023-05-07T08:16:09.004Z,100.00
2023-05-07T08:25:02.462Z,100.00
2023-05-07T08:28:55.255Z,100.00
2023-05-07T08:32:46.522Z,100.00
2023-05-07T08:37:14.250Z,100.00
2023-05-07T08:41:42.751Z,100.00
2023-05-07T08:45:51.462Z,100.00
2023-05-07T08:49:47.029Z,100.00
2023-05-07T08:53:38.806Z,100.00
2023-05-07T08:57:26.544Z,100.00
2023-05-07T09:01:16.263Z,100.00
2023-05-07T09:05:07.866Z,100.00
2023-05-07T09:09:40.500Z,100.00
2023-05-07T09:14:10.149Z,100.00
2023-05-07T09:17:56.782Z,100.00
2023-05-07T09:21:46.695Z,100.00
2023-05-07T09:25:34.856Z,100.00
2023-05-07T09:29:25.136Z,100.00
2023-05-07T09:33:20.990Z,100.00
2023-05-07T09:37:13.332Z,100.00
2023-05-07T09:41:21.275Z,100.00
2023-05-07T09:45:21.263Z,100.00
2023-05-07T09:49:11.093Z,100.00
2023-05-07T09:53:00.969Z,100.00
2023-05-07T09:56:53.079Z,100.00
2023-05-07T10:01:21.437Z,100.00
2023-05-07T10:05:50.399Z,100.00
2023-05-07T10:09:59.489Z,100.00
2023-05-07T10:13:53.740Z,99.80
2023-05-07T10:18:19.490Z,100.00
2023-05-07T10:22:36.649Z,99.67
2023-05-07T10:26:35.580Z,98.44
2023-05-07T10:30:38.373Z,99.52
2023-05-07T10:34:49.383Z,99.20
2023-05-07T10:39:18.365Z,99.22
2023-05-07T10:43:11.950Z,98.15
2023-05-07T10:47:47.820Z,97.58
2023-05-07T10:52:17.876Z,90.13
2023-05-07T10:56:19.445Z,96.46
2023-05-07T11:00:31.755Z,100.00
2023-05-07T11:04:27.161Z,100.00
2023-05-07T11:08:19.165Z,100.00
2023-05-07T11:12:29.155Z,100.00
2023-05-07T11:16:45.455Z,100.00
2023-05-07T11:21:02.763Z,100.00
2023-05-07T11:25:15.744Z,100.00
2023-05-07T11:29:25.936Z,100.00
2023-05-07T11:33:35.167Z,100.00
2023-05-07T11:37:25.631Z,93.57
2023-05-07T11:41:52.829Z,92.59
2023-05-07T11:45:44.792Z,86.67
2023-05-07T11:49:33.488Z,89.90
2023-05-07T11:53:42.005Z,82.45
2023-05-07T11:57:49.485Z,79.87
2023-05-07T12:01:49.969Z,74.87
2023-05-07T12:05:40.130Z,69.48
2023-05-07T12:10:08.779Z,78.01
2023-05-07T12:14:19.321Z,82.44
2023-05-07T12:18:47.355Z,83.18
2023-05-07T12:22:57.322Z,81.75
2023-05-07T12:27:08.850Z,84.83
2023-05-07T12:30:57.691Z,79.54
2023-05-07T12:35:30.214Z,67.70
2023-05-07T12:39:58.508Z,64.73
2023-05-07T12:44:26.677Z,65.24
2023-05-07T12:48:54.641Z,65.41
2023-05-07T12:52:47.946Z,62.25
2023-05-07T12:56:44.289Z,69.92
2023-05-07T13:00:52.183Z,73.79
2023-05-07T13:05:01.673Z,70.89
2023-05-07T13:09:32.955Z,70.16
2023-05-07T13:14:00.532Z,69.63
2023-05-07T13:18:28.379Z,69.54
2023-05-07T13:22:17.388Z,73.43
2023-05-07T13:26:14.623Z,64.98
2023-05-07T13:30:21.492Z,65.45
2023-05-07T13:34:10.948Z,61.94
2023-05-07T13:38:20.389Z,62.57
2023-05-07T13:42:09.446Z,62.07
2023-05-07T13:46:17.637Z,63.12
2023-05-07T13:50:46.998Z,60.46
2023-05-07T13:54:58.119Z,57.97
2023-05-07T13:59:53.692Z,56.61
2023-05-07T14:03:37.140Z,57.64
2023-05-07T14:08:05.079Z,52.74
2023-05-07T14:11:52.910Z,53.45
2023-05-07T14:15:36.149Z,60.72
2023-05-07T14:19:33.125Z,69.09
2023-05-07T14:23:41.128Z,63.74
2023-05-07T14:27:45.499Z,65.64
2023-05-07T14:31:56.652Z,66.54
2023-05-07T14:36:27.148Z,67.21
2023-05-07T14:40:17.284Z,60.05
2023-05-07T14:44:09.866Z,55.50
2023-05-07T14:48:21.135Z,55.38
2023-05-07T14:52:10.240Z,54.65
2023-05-07T14:56:08.451Z,54.42
2023-05-07T14:59:57.290Z,50.20
2023-05-07T15:03:46.469Z,53.77
2023-05-07T15:07:36.370Z,59.49
2023-05-07T15:11:45.288Z,56.15
2023-05-07T15:15:54.953Z,56.42
2023-05-07T15:19:47.316Z,60.12
2023-05-07T15:23:38.410Z,61.37
2023-05-07T15:27:46.764Z,63.06
2023-05-07T15:31:20.178Z,66.28
2023-05-07T15:35:28.035Z,70.27
2023-05-07T15:39:19.453Z,68.02
2023-05-07T15:43:11.385Z,68.04
2023-05-07T15:47:22.512Z,72.12
2023-05-07T15:51:11.725Z,68.69
2023-05-07T15:55:39.681Z,65.28
2023-05-07T15:59:27.658Z,59.15
2023-05-07T16:03:19.048Z,58.21
2023-05-07T16:07:08.833Z,53.72
2023-05-07T16:11:19.286Z,54.85
2023-05-07T16:15:07.780Z,55.60
2023-05-07T16:18:59.500Z,54.64
2023-05-07T16:22:55.539Z,54.08
2023-05-07T16:27:00.005Z,53.81
2023-05-07T16:30:45.573Z,53.39
2023-05-07T16:34:36.918Z,55.01
2023-05-07T16:38:45.280Z,56.57
2023-05-07T16:42:34.814Z,57.04
2023-05-07T16:46:38.377Z,56.40
2023-05-07T16:50:50.530Z,57.82
2023-05-07T16:54:39.150Z,57.07
2023-05-07T16:58:27.041Z,55.80
2023-05-07T17:02:16.147Z,54.96
2023-05-07T17:06:04.815Z,56.07
2023-05-07T17:09:57.690Z,53.79
2023-05-07T17:13:46.410Z,57.24
2023-05-07T17:17:34.357Z,59.31
2023-05-07T17:21:22.524Z,61.06
2023-05-07T17:25:11.972Z,63.92
2023-05-07T17:29:00.842Z,64.93
2023-05-07T17:32:49.685Z,65.53
2023-05-07T17:36:41.686Z,65.97
2023-05-07T17:40:30.526Z,66.54
2023-05-07T17:44:20.339Z,68.34
2023-05-07T17:48:06.563Z,68.29
2023-05-07T17:52:04.531Z,68.74
2023-05-07T17:55:53.656Z,68.96
2023-05-07T17:59:44.814Z,71.32
2023-05-07T18:03:35.326Z,72.64
2023-05-07T18:07:28.100Z,74.47
2023-05-07T18:11:19.072Z,74.64
2023-05-07T18:15:09.348Z,78.39
2023-05-07T18:18:58.939Z,86.11
2023-05-07T18:22:41.375Z,86.09
2023-05-07T18:26:30.067Z,87.20
2023-05-07T18:30:22.509Z,94.34
2023-05-07T18:34:16.039Z,100.00
2023-05-07T18:38:06.770Z,100.00
2023-05-07T18:41:55.444Z,100.00
2023-05-07T18:45:40.962Z,100.00
2023-05-07T18:49:30.635Z,100.00
2023-05-07T18:53:20.200Z,100.00
2023-05-07T18:57:08.707Z,100.00
2023-05-07T19:00:57.291Z,100.00
2023-05-07T19:04:40.085Z,100.00
2023-05-07T19:08:29.883Z,100.00
2023-05-07T19:12:35.809Z,100.00
2023-05-07T19:16:12.426Z,100.00
2023-05-07T19:19:45.033Z,100.00
2023-05-07T19:23:35.578Z,100.00
2023-05-07T19:27:24.216Z,100.00
2023-05-07T19:31:13.393Z,100.00
2023-05-07T19:35:02.875Z,100.00
2023-05-07T19:38:43.697Z,100.00
2023-05-07T19:42:14.963Z,100.00
2023-05-07T19:46:04.689Z,100.00
2023-05-07T19:49:54.500Z,100.00
2023-05-07T19:53:43.687Z,100.00
2023-05-07T19:57:15.111Z,100.00
2023-05-07T20:00:40.508Z,100.00
2023-05-07T20:04:31.033Z,100.00
2023-05-07T20:08:28.783Z,100.00
2023-05-07T20:12:25.918Z,100.00
2023-05-07T20:16:25.616Z,100.00
2023-05-07T20:20:13.985Z,100.00
2023-05-07T20:24:26.801Z,100.00
2023-05-07T20:28:22.907Z,100.00
2023-05-07T20:32:12.287Z,100.00
2023-05-07T20:35:46.728Z,100.00
2023-05-07T20:39:35.951Z,100.00
2023-05-07T20:43:18.856Z,100.00
2023-05-07T20:46:48.425Z,100.00
2023-05-07T20:50:35.076Z,100.00
2023-05-07T20:54:24.136Z,100.00
2023-05-07T20:58:12.340Z,100.00
2023-05-07T21:02:01.390Z,100.00
2023-05-07T21:05:55.727Z,100.00
2023-05-07T21:09:25.139Z,100.00
2023-05-07T21:13:14.212Z,100.00
2023-05-07T21:16:57.443Z,100.00
2023-05-07T21:20:28.681Z,100.00
2023-05-07T21:24:16.595Z,100.00
2023-05-07T21:27:50.336Z,100.00
2023-05-07T21:31:38.045Z,100.00
2023-05-07T21:35:25.744Z,100.00
2023-05-07T21:39:13.542Z,100.00
2023-05-07T21:43:02.650Z,100.00
2023-05-07T21:46:50.335Z,100.00
2023-05-07T21:50:38.408Z,100.00
2023-05-07T21:54:26.925Z,100.00
2023-05-07T21:58:05.992Z,100.00
2023-05-07T22:01:48.526Z,100.00
2023-05-07T22:05:36.301Z,100.00
2023-05-07T22:09:32.639Z,100.00
2023-05-07T22:13:20.625Z,100.00
2023-05-07T22:17:09.113Z,100.00
2023-05-07T22:20:44.452Z,100.00
2023-05-07T22:24:32.671Z,100.00
2023-05-07T22:28:20.598Z,100.00
2023-05-07T22:31:58.537Z,100.00
2023-05-07T22:35:32.162Z,100.00
2023-05-07T22:39:18.852Z,100.00
2023-05-07T22:43:06.743Z,100.00
2023-05-07T22:47:02.996Z,100.00
2023-05-07T22:50:37.667Z,100.00
2023-05-07T22:54:25.684Z,100.00
2023-05-07T22:57:55.753Z,100.00
2023-05-07T23:01:44.460Z,100.00
2023-05-07T23:05:31.961Z,100.00
2023-05-07T23:09:20.033Z,100.00
2023-05-07T23:13:07.536Z,100.00
2023-05-07T23:16:48.128Z,100.00
2023-05-07T23:20:17.776Z,100.00
2023-05-07T23:23:56.686Z,100.00
2023-05-07T23:27:34.162Z,100.00
2023-05-07T23:31:01.980Z,100.00
2023-05-07T23:34:41.352Z,100.00
2023-05-07T23:38:28.890Z,100.00
2023-05-07T23:41:59.757Z,100.00
2023-05-07T23:45:37.137Z,100.00
2023-05-07T23:49:24.623Z,100.00
2023-05-07T23:53:12.250Z,100.00
2023-05-07T23:56:59.658Z,100.00
